sensor_id;sensor_type;location;lat;lon;timestamp;P1;durP1;ratioP1;P2;durP2;ratioP2
71303;SDS011;59091;47.446;19.148;2022-08-19T00:01:19;8.32;;;5.70;;
71303;SDS011;59091;47.446;19.148;2022-08-19T00:03:45;7.28;;;5.63;;
71303;SDS011;59091;47.446;19.148;2022-08-19T00:06:10;7.28;;;5.68;;
71303;SDS011;59091;47.446;19.148;2022-08-19T00:08:36;7.43;;;5.45;;
71303;SDS011;59091;47.446;19.148;2022-08-19T00:11:01;9.40;;;5.80;;
71303;SDS011;59091;47.446;19.148;2022-08-19T00:13:27;5.90;;;5.28;;
71303;SDS011;59091;47.446;19.148;2022-08-19T00:15:53;8.85;;;6.25;;
71303;SDS011;59091;47.446;19.148;2022-08-19T00:18:19;7.90;;;5.80;;
71303;SDS011;59091;47.446;19.148;2022-08-19T00:20:44;7.13;;;5.45;;
71303;SDS011;59091;47.446;19.148;2022-08-19T00:23:10;8.45;;;5.63;;
71303;SDS011;59091;47.446;19.148;2022-08-19T00:25:35;8.85;;;5.60;;
71303;SDS011;59091;47.446;19.148;2022-08-19T00:28:01;8.77;;;5.63;;
71303;SDS011;59091;47.446;19.148;2022-08-19T00:30:27;8.90;;;5.70;;
71303;SDS011;59091;47.446;19.148;2022-08-19T00:32:53;6.88;;;5.57;;
71303;SDS011;59091;47.446;19.148;2022-08-19T00:35:22;6.20;;;5.38;;
71303;SDS011;59091;47.446;19.148;2022-08-19T00:37:48;7.25;;;5.93;;
71303;SDS011;59091;47.446;19.148;2022-08-19T00:40:14;10.43;;;6.30;;
71303;SDS011;59091;47.446;19.148;2022-08-19T00:42:41;9.38;;;6.45;;
71303;SDS011;59091;47.446;19.148;2022-08-19T00:45:12;7.05;;;5.38;;
71303;SDS011;59091;47.446;19.148;2022-08-19T00:47:44;6.65;;;5.55;;
71303;SDS011;59091;47.446;19.148;2022-08-19T00:50:11;8.20;;;6.05;;
71303;SDS011;59091;47.446;19.148;2022-08-19T00:52:40;6.93;;;5.97;;
71303;SDS011;59091;47.446;19.148;2022-08-19T00:55:11;7.03;;;5.72;;
71303;SDS011;59091;47.446;19.148;2022-08-19T00:57:42;8.38;;;5.60;;
71303;SDS011;59091;47.446;19.148;2022-08-19T01:00:11;9.30;;;5.40;;
71303;SDS011;59091;47.446;19.148;2022-08-19T01:02:39;7.47;;;5.70;;
71303;SDS011;59091;47.446;19.148;2022-08-19T01:05:08;6.72;;;6.00;;
71303;SDS011;59091;47.446;19.148;2022-08-19T01:07:37;9.77;;;5.93;;
71303;SDS011;59091;47.446;19.148;2022-08-19T01:10:04;7.15;;;5.75;;
71303;SDS011;59091;47.446;19.148;2022-08-19T01:12:32;11.23;;;6.28;;
71303;SDS011;59091;47.446;19.148;2022-08-19T01:14:57;8.93;;;6.72;;
71303;SDS011;59091;47.446;19.148;2022-08-19T01:17:24;6.88;;;5.57;;
71303;SDS011;59091;47.446;19.148;2022-08-19T01:19:50;7.18;;;5.88;;
71303;SDS011;59091;47.446;19.148;2022-08-19T01:22:30;11.02;;;6.32;;
71303;SDS011;59091;47.446;19.148;2022-08-19T01:24:57;9.35;;;6.05;;
71303;SDS011;59091;47.446;19.148;2022-08-19T01:27:22;11.07;;;5.82;;
71303;SDS011;59091;47.446;19.148;2022-08-19T01:29:48;7.47;;;5.85;;
71303;SDS011;59091;47.446;19.148;2022-08-19T01:32:14;8.05;;;6.15;;
71303;SDS011;59091;47.446;19.148;2022-08-19T01:34:41;6.57;;;5.65;;
71303;SDS011;59091;47.446;19.148;2022-08-19T01:37:10;6.97;;;5.95;;
71303;SDS011;59091;47.446;19.148;2022-08-19T01:39:37;8.75;;;6.28;;
71303;SDS011;59091;47.446;19.148;2022-08-19T01:42:04;6.18;;;5.30;;
71303;SDS011;59091;47.446;19.148;2022-08-19T01:44:32;8.02;;;5.97;;
71303;SDS011;59091;47.446;19.148;2022-08-19T01:46:58;9.18;;;6.10;;
71303;SDS011;59091;47.446;19.148;2022-08-19T01:49:24;11.07;;;6.63;;
71303;SDS011;59091;47.446;19.148;2022-08-19T01:51:51;7.07;;;5.95;;
71303;SDS011;59091;47.446;19.148;2022-08-19T01:54:18;6.97;;;5.85;;
71303;SDS011;59091;47.446;19.148;2022-08-19T01:56:45;8.93;;;6.57;;
71303;SDS011;59091;47.446;19.148;2022-08-19T01:59:12;8.25;;;5.90;;
71303;SDS011;59091;47.446;19.148;2022-08-19T02:01:42;9.30;;;5.88;;
71303;SDS011;59091;47.446;19.148;2022-08-19T02:04:08;7.05;;;5.82;;
71303;SDS011;59091;47.446;19.148;2022-08-19T02:06:33;10.07;;;6.38;;
71303;SDS011;59091;47.446;19.148;2022-08-19T02:08:59;11.70;;;6.25;;
71303;SDS011;59091;47.446;19.148;2022-08-19T02:11:27;7.32;;;6.05;;
71303;SDS011;59091;47.446;19.148;2022-08-19T02:13:56;11.10;;;6.03;;
71303;SDS011;59091;47.446;19.148;2022-08-19T02:16:23;10.50;;;6.78;;
71303;SDS011;59091;47.446;19.148;2022-08-19T02:18:49;8.50;;;6.68;;
71303;SDS011;59091;47.446;19.148;2022-08-19T02:21:16;10.68;;;6.28;;
71303;SDS011;59091;47.446;19.148;2022-08-19T02:23:42;7.13;;;6.13;;
71303;SDS011;59091;47.446;19.148;2022-08-19T02:26:08;8.27;;;6.30;;
71303;SDS011;59091;47.446;19.148;2022-08-19T02:28:34;9.45;;;6.28;;
71303;SDS011;59091;47.446;19.148;2022-08-19T02:31:01;9.93;;;6.45;;
71303;SDS011;59091;47.446;19.148;2022-08-19T02:33:27;7.75;;;6.25;;
71303;SDS011;59091;47.446;19.148;2022-08-19T02:35:53;9.85;;;6.07;;
71303;SDS011;59091;47.446;19.148;2022-08-19T02:38:18;7.43;;;6.05;;
71303;SDS011;59091;47.446;19.148;2022-08-19T02:40:57;9.35;;;6.32;;
71303;SDS011;59091;47.446;19.148;2022-08-19T02:43:28;9.68;;;6.82;;
71303;SDS011;59091;47.446;19.148;2022-08-19T02:45:54;9.85;;;6.57;;
71303;SDS011;59091;47.446;19.148;2022-08-19T02:48:21;8.82;;;6.10;;
71303;SDS011;59091;47.446;19.148;2022-08-19T02:50:48;9.13;;;6.70;;
71303;SDS011;59091;47.446;19.148;2022-08-19T02:53:20;10.38;;;6.30;;
71303;SDS011;59091;47.446;19.148;2022-08-19T02:55:47;8.02;;;6.60;;
71303;SDS011;59091;47.446;19.148;2022-08-19T02:58:14;10.02;;;6.03;;
71303;SDS011;59091;47.446;19.148;2022-08-19T03:00:44;12.82;;;6.00;;
71303;SDS011;59091;47.446;19.148;2022-08-19T03:03:11;10.40;;;6.60;;
71303;SDS011;59091;47.446;19.148;2022-08-19T03:05:37;10.15;;;6.53;;
71303;SDS011;59091;47.446;19.148;2022-08-19T03:08:03;8.40;;;6.15;;
71303;SDS011;59091;47.446;19.148;2022-08-19T03:10:29;9.40;;;5.85;;
71303;SDS011;59091;47.446;19.148;2022-08-19T03:12:54;8.13;;;6.20;;
71303;SDS011;59091;47.446;19.148;2022-08-19T03:15:19;8.25;;;6.38;;
71303;SDS011;59091;47.446;19.148;2022-08-19T03:17:45;8.13;;;6.20;;
71303;SDS011;59091;47.446;19.148;2022-08-19T03:20:10;10.05;;;6.68;;
71303;SDS011;59091;47.446;19.148;2022-08-19T03:22:36;9.55;;;6.88;;
71303;SDS011;59091;47.446;19.148;2022-08-19T03:25:02;8.13;;;6.60;;
71303;SDS011;59091;47.446;19.148;2022-08-19T03:27:27;11.65;;;6.45;;
71303;SDS011;59091;47.446;19.148;2022-08-19T03:29:54;12.38;;;7.88;;
71303;SDS011;59091;47.446;19.148;2022-08-19T03:32:20;8.40;;;6.75;;
71303;SDS011;59091;47.446;19.148;2022-08-19T03:34:46;10.57;;;6.68;;
71303;SDS011;59091;47.446;19.148;2022-08-19T03:37:12;13.35;;;7.82;;
71303;SDS011;59091;47.446;19.148;2022-08-19T03:39:38;10.80;;;6.80;;
71303;SDS011;59091;47.446;19.148;2022-08-19T03:42:05;9.77;;;6.75;;
71303;SDS011;59091;47.446;19.148;2022-08-19T03:44:31;11.23;;;7.43;;
71303;SDS011;59091;47.446;19.148;2022-08-19T03:47:02;20.30;;;8.13;;
71303;SDS011;59091;47.446;19.148;2022-08-19T03:49:29;10.52;;;7.75;;
71303;SDS011;59091;47.446;19.148;2022-08-19T03:51:57;12.65;;;7.32;;
71303;SDS011;59091;47.446;19.148;2022-08-19T03:54:25;8.68;;;6.60;;
71303;SDS011;59091;47.446;19.148;2022-08-19T03:56:52;11.10;;;6.68;;
71303;SDS011;59091;47.446;19.148;2022-08-19T03:59:21;8.05;;;6.15;;
71303;SDS011;59091;47.446;19.148;2022-08-19T04:01:50;7.68;;;6.15;;
71303;SDS011;59091;47.446;19.148;2022-08-19T04:04:15;9.88;;;6.28;;
71303;SDS011;59091;47.446;19.148;2022-08-19T04:06:40;8.98;;;5.68;;
71303;SDS011;59091;47.446;19.148;2022-08-19T04:09:09;8.43;;;6.15;;
71303;SDS011;59091;47.446;19.148;2022-08-19T04:11:46;9.90;;;6.40;;
71303;SDS011;59091;47.446;19.148;2022-08-19T04:14:17;10.48;;;5.70;;
71303;SDS011;59091;47.446;19.148;2022-08-19T04:16:45;11.45;;;6.63;;
71303;SDS011;59091;47.446;19.148;2022-08-19T04:19:12;10.70;;;6.88;;
71303;SDS011;59091;47.446;19.148;2022-08-19T04:21:39;11.32;;;6.00;;
71303;SDS011;59091;47.446;19.148;2022-08-19T04:24:04;10.82;;;6.43;;
71303;SDS011;59091;47.446;19.148;2022-08-19T04:26:32;9.32;;;6.50;;
71303;SDS011;59091;47.446;19.148;2022-08-19T04:29:00;7.13;;;6.20;;
71303;SDS011;59091;47.446;19.148;2022-08-19T04:31:30;9.02;;;6.40;;
71303;SDS011;59091;47.446;19.148;2022-08-19T04:34:00;10.02;;;6.13;;
71303;SDS011;59091;47.446;19.148;2022-08-19T04:36:32;7.00;;;5.93;;
71303;SDS011;59091;47.446;19.148;2022-08-19T04:39:04;8.43;;;5.68;;
71303;SDS011;59091;47.446;19.148;2022-08-19T04:41:32;8.73;;;5.90;;
71303;SDS011;59091;47.446;19.148;2022-08-19T04:44:16;8.13;;;5.82;;
71303;SDS011;59091;47.446;19.148;2022-08-19T04:46:45;7.88;;;6.22;;
71303;SDS011;59091;47.446;19.148;2022-08-19T04:49:12;9.80;;;6.10;;
71303;SDS011;59091;47.446;19.148;2022-08-19T04:51:40;7.22;;;5.95;;
71303;SDS011;59091;47.446;19.148;2022-08-19T04:54:07;10.45;;;6.00;;
71303;SDS011;59091;47.446;19.148;2022-08-19T04:56:32;6.30;;;5.47;;
71303;SDS011;59091;47.446;19.148;2022-08-19T04:58:58;8.88;;;6.10;;
71303;SDS011;59091;47.446;19.148;2022-08-19T05:01:28;9.52;;;6.15;;
71303;SDS011;59091;47.446;19.148;2022-08-19T05:03:55;8.07;;;5.90;;
71303;SDS011;59091;47.446;19.148;2022-08-19T05:06:22;9.02;;;6.05;;
71303;SDS011;59091;47.446;19.148;2022-08-19T05:08:47;10.07;;;6.32;;
71303;SDS011;59091;47.446;19.148;2022-08-19T05:11:22;6.82;;;5.60;;
71303;SDS011;59091;47.446;19.148;2022-08-19T05:13:49;6.82;;;5.65;;
71303;SDS011;59091;47.446;19.148;2022-08-19T05:16:16;6.93;;;5.45;;
71303;SDS011;59091;47.446;19.148;2022-08-19T05:18:43;7.50;;;5.65;;
71303;SDS011;59091;47.446;19.148;2022-08-19T05:21:28;8.90;;;5.75;;
71303;SDS011;59091;47.446;19.148;2022-08-19T05:24:12;5.95;;;5.10;;
71303;SDS011;59091;47.446;19.148;2022-08-19T05:26:40;8.30;;;5.45;;
71303;SDS011;59091;47.446;19.148;2022-08-19T05:29:16;10.50;;;6.10;;
71303;SDS011;59091;47.446;19.148;2022-08-19T05:31:44;7.88;;;5.68;;
71303;SDS011;59091;47.446;19.148;2022-08-19T05:34:10;6.07;;;5.47;;
71303;SDS011;59091;47.446;19.148;2022-08-19T05:36:37;7.90;;;5.45;;
71303;SDS011;59091;47.446;19.148;2022-08-19T05:39:05;8.45;;;5.75;;
71303;SDS011;59091;47.446;19.148;2022-08-19T05:41:32;7.82;;;5.45;;
71303;SDS011;59091;47.446;19.148;2022-08-19T05:43:58;12.60;;;5.78;;
71303;SDS011;59091;47.446;19.148;2022-08-19T05:46:26;7.30;;;5.32;;
71303;SDS011;59091;47.446;19.148;2022-08-19T05:48:51;10.73;;;5.43;;
71303;SDS011;59091;47.446;19.148;2022-08-19T05:51:17;6.85;;;5.32;;
71303;SDS011;59091;47.446;19.148;2022-08-19T05:53:42;9.85;;;5.22;;
71303;SDS011;59091;47.446;19.148;2022-08-19T05:56:14;16.85;;;5.40;;
71303;SDS011;59091;47.446;19.148;2022-08-19T05:58:41;9.43;;;5.30;;
71303;SDS011;59091;47.446;19.148;2022-08-19T06:01:17;36.22;;;6.85;;
71303;SDS011;59091;47.446;19.148;2022-08-19T06:03:43;9.30;;;5.00;;
71303;SDS011;59091;47.446;19.148;2022-08-19T06:06:11;17.02;;;6.18;;
71303;SDS011;59091;47.446;19.148;2022-08-19T06:08:38;16.90;;;6.05;;
71303;SDS011;59091;47.446;19.148;2022-08-19T06:13:45;6.45;;;4.55;;
71303;SDS011;59091;47.446;19.148;2022-08-19T06:16:15;12.35;;;4.70;;
71303;SDS011;59091;47.446;19.148;2022-08-19T06:18:47;28.75;;;6.38;;
71303;SDS011;59091;47.446;19.148;2022-08-19T06:21:13;7.20;;;4.20;;
71303;SDS011;59091;47.446;19.148;2022-08-19T06:23:39;4.97;;;4.28;;
71303;SDS011;59091;47.446;19.148;2022-08-19T06:26:05;5.80;;;4.68;;
71303;SDS011;59091;47.446;19.148;2022-08-19T06:28:30;7.43;;;4.88;;
71303;SDS011;59091;47.446;19.148;2022-08-19T06:30:57;9.82;;;4.70;;
71303;SDS011;59091;47.446;19.148;2022-08-19T06:33:23;4.85;;;4.32;;
71303;SDS011;59091;47.446;19.148;2022-08-19T06:35:48;6.95;;;4.43;;
71303;SDS011;59091;47.446;19.148;2022-08-19T06:38:14;5.90;;;4.43;;
71303;SDS011;59091;47.446;19.148;2022-08-19T06:40:39;5.65;;;4.50;;
71303;SDS011;59091;47.446;19.148;2022-08-19T06:43:05;5.03;;;4.53;;
71303;SDS011;59091;47.446;19.148;2022-08-19T06:45:30;8.57;;;4.28;;
71303;SDS011;59091;47.446;19.148;2022-08-19T06:47:56;8.38;;;4.60;;
71303;SDS011;59091;47.446;19.148;2022-08-19T06:50:22;5.80;;;4.57;;
71303;SDS011;59091;47.446;19.148;2022-08-19T06:52:48;16.67;;;5.75;;
71303;SDS011;59091;47.446;19.148;2022-08-19T06:55:14;6.30;;;4.60;;
71303;SDS011;59091;47.446;19.148;2022-08-19T06:57:40;7.88;;;4.75;;
71303;SDS011;59091;47.446;19.148;2022-08-19T07:00:07;6.30;;;4.65;;
71303;SDS011;59091;47.446;19.148;2022-08-19T07:02:39;6.72;;;4.15;;
71303;SDS011;59091;47.446;19.148;2022-08-19T07:05:06;5.03;;;4.07;;
71303;SDS011;59091;47.446;19.148;2022-08-19T07:07:32;6.30;;;4.47;;
71303;SDS011;59091;47.446;19.148;2022-08-19T07:09:57;7.72;;;4.13;;
71303;SDS011;59091;47.446;19.148;2022-08-19T07:12:23;4.85;;;4.00;;
71303;SDS011;59091;47.446;19.148;2022-08-19T07:14:48;6.57;;;4.25;;
71303;SDS011;59091;47.446;19.148;2022-08-19T07:17:14;4.60;;;4.20;;
71303;SDS011;59091;47.446;19.148;2022-08-19T07:19:40;4.53;;;4.13;;
71303;SDS011;59091;47.446;19.148;2022-08-19T07:22:07;5.65;;;4.10;;
71303;SDS011;59091;47.446;19.148;2022-08-19T07:24:33;6.32;;;4.05;;
71303;SDS011;59091;47.446;19.148;2022-08-19T07:27:00;7.75;;;4.30;;
71303;SDS011;59091;47.446;19.148;2022-08-19T07:29:28;4.85;;;4.18;;
71303;SDS011;59091;47.446;19.148;2022-08-19T07:31:55;7.05;;;3.95;;
71303;SDS011;59091;47.446;19.148;2022-08-19T07:34:23;6.60;;;3.97;;
71303;SDS011;59091;47.446;19.148;2022-08-19T07:36:51;4.35;;;3.85;;
71303;SDS011;59091;47.446;19.148;2022-08-19T07:39:19;7.03;;;4.45;;
71303;SDS011;59091;47.446;19.148;2022-08-19T07:41:47;4.70;;;4.20;;
71303;SDS011;59091;47.446;19.148;2022-08-19T07:44:13;4.97;;;4.15;;
71303;SDS011;59091;47.446;19.148;2022-08-19T07:46:44;8.55;;;4.30;;
71303;SDS011;59091;47.446;19.148;2022-08-19T07:49:12;5.05;;;4.10;;
71303;SDS011;59091;47.446;19.148;2022-08-19T07:51:42;6.75;;;4.53;;
71303;SDS011;59091;47.446;19.148;2022-08-19T07:54:08;8.13;;;3.88;;
71303;SDS011;59091;47.446;19.148;2022-08-19T07:56:36;6.70;;;4.22;;
71303;SDS011;59091;47.446;19.148;2022-08-19T07:59:02;8.05;;;4.25;;
71303;SDS011;59091;47.446;19.148;2022-08-19T08:01:27;10.82;;;4.63;;
71303;SDS011;59091;47.446;19.148;2022-08-19T08:03:54;7.78;;;3.65;;
71303;SDS011;59091;47.446;19.148;2022-08-19T08:06:39;16.83;;;4.80;;
71303;SDS011;59091;47.446;19.148;2022-08-19T08:09:26;4.40;;;4.00;;
71303;SDS011;59091;47.446;19.148;2022-08-19T08:12:04;8.87;;;4.53;;
71303;SDS011;59091;47.446;19.148;2022-08-19T08:14:45;4.57;;;4.10;;
71303;SDS011;59091;47.446;19.148;2022-08-19T08:17:14;4.63;;;3.92;;
71303;SDS011;59091;47.446;19.148;2022-08-19T08:19:41;4.18;;;3.80;;
71303;SDS011;59091;47.446;19.148;2022-08-19T08:22:07;7.43;;;4.30;;
71303;SDS011;59091;47.446;19.148;2022-08-19T08:24:53;5.45;;;3.60;;
71303;SDS011;59091;47.446;19.148;2022-08-19T08:27:19;5.15;;;3.80;;
71303;SDS011;59091;47.446;19.148;2022-08-19T08:29:45;4.10;;;3.70;;
71303;SDS011;59091;47.446;19.148;2022-08-19T08:32:10;5.68;;;4.05;;
71303;SDS011;59091;47.446;19.148;2022-08-19T08:34:35;5.22;;;4.20;;
71303;SDS011;59091;47.446;19.148;2022-08-19T08:37:02;8.10;;;4.00;;
71303;SDS011;59091;47.446;19.148;2022-08-19T08:39:28;5.35;;;3.90;;
71303;SDS011;59091;47.446;19.148;2022-08-19T08:44:52;5.85;;;4.22;;
71303;SDS011;59091;47.446;19.148;2022-08-19T08:47:21;4.68;;;3.70;;
71303;SDS011;59091;47.446;19.148;2022-08-19T08:50:04;4.80;;;3.67;;
71303;SDS011;59091;47.446;19.148;2022-08-19T08:52:36;6.50;;;3.65;;
71303;SDS011;59091;47.446;19.148;2022-08-19T08:55:11;4.40;;;3.75;;
71303;SDS011;59091;47.446;19.148;2022-08-19T09:00:30;5.13;;;3.85;;
71303;SDS011;59091;47.446;19.148;2022-08-19T09:03:02;7.95;;;4.35;;
71303;SDS011;59091;47.446;19.148;2022-08-19T09:05:55;6.80;;;3.80;;
71303;SDS011;59091;47.446;19.148;2022-08-19T09:11:24;6.18;;;4.20;;
71303;SDS011;59091;47.446;19.148;2022-08-19T09:16:34;9.70;;;3.83;;
71303;SDS011;59091;47.446;19.148;2022-08-19T09:19:03;4.13;;;3.72;;
71303;SDS011;59091;47.446;19.148;2022-08-19T09:21:30;8.10;;;3.72;;
71303;SDS011;59091;47.446;19.148;2022-08-19T09:23:55;6.85;;;3.88;;
71303;SDS011;59091;47.446;19.148;2022-08-19T09:26:23;4.90;;;3.72;;
71303;SDS011;59091;47.446;19.148;2022-08-19T09:28:49;5.35;;;3.88;;
71303;SDS011;59091;47.446;19.148;2022-08-19T09:31:22;6.35;;;3.80;;
71303;SDS011;59091;47.446;19.148;2022-08-19T09:33:49;4.68;;;3.58;;
71303;SDS011;59091;47.446;19.148;2022-08-19T09:36:17;7.80;;;3.80;;
71303;SDS011;59091;47.446;19.148;2022-08-19T09:38:45;6.72;;;3.90;;
71303;SDS011;59091;47.446;19.148;2022-08-19T09:41:15;4.72;;;3.60;;
71303;SDS011;59091;47.446;19.148;2022-08-19T09:43:44;4.60;;;3.25;;
71303;SDS011;59091;47.446;19.148;2022-08-19T09:46:11;7.03;;;4.53;;
71303;SDS011;59091;47.446;19.148;2022-08-19T09:48:38;4.82;;;3.80;;
71303;SDS011;59091;47.446;19.148;2022-08-19T09:51:06;5.93;;;3.92;;
71303;SDS011;59091;47.446;19.148;2022-08-19T09:53:35;5.05;;;3.63;;
71303;SDS011;59091;47.446;19.148;2022-08-19T09:56:01;15.80;;;4.95;;
71303;SDS011;59091;47.446;19.148;2022-08-19T09:58:27;4.95;;;3.67;;
71303;SDS011;59091;47.446;19.148;2022-08-19T10:00:55;5.18;;;3.95;;
71303;SDS011;59091;47.446;19.148;2022-08-19T10:03:23;11.60;;;4.22;;
71303;SDS011;59091;47.446;19.148;2022-08-19T10:05:49;4.07;;;3.47;;
71303;SDS011;59091;47.446;19.148;2022-08-19T10:08:22;4.28;;;3.88;;
71303;SDS011;59091;47.446;19.148;2022-08-19T10:10:53;6.07;;;3.58;;
71303;SDS011;59091;47.446;19.148;2022-08-19T10:13:20;3.92;;;3.55;;
71303;SDS011;59091;47.446;19.148;2022-08-19T10:15:49;7.25;;;4.38;;
71303;SDS011;59091;47.446;19.148;2022-08-19T10:18:16;3.88;;;3.58;;
71303;SDS011;59091;47.446;19.148;2022-08-19T10:20:43;6.82;;;3.40;;
71303;SDS011;59091;47.446;19.148;2022-08-19T10:23:10;11.57;;;4.32;;
71303;SDS011;59091;47.446;19.148;2022-08-19T10:25:36;6.70;;;3.80;;
71303;SDS011;59091;47.446;19.148;2022-08-19T10:28:02;5.65;;;3.40;;
71303;SDS011;59091;47.446;19.148;2022-08-19T10:30:29;3.90;;;3.50;;
71303;SDS011;59091;47.446;19.148;2022-08-19T10:32:54;8.07;;;3.40;;
71303;SDS011;59091;47.446;19.148;2022-08-19T10:35:20;9.40;;;3.90;;
71303;SDS011;59091;47.446;19.148;2022-08-19T10:37:45;21.48;;;3.78;;
71303;SDS011;59091;47.446;19.148;2022-08-19T10:40:11;13.68;;;3.85;;
71303;SDS011;59091;47.446;19.148;2022-08-19T10:42:36;11.38;;;3.90;;
71303;SDS011;59091;47.446;19.148;2022-08-19T10:45:02;9.32;;;4.00;;
71303;SDS011;59091;47.446;19.148;2022-08-19T10:47:30;11.35;;;3.67;;
71303;SDS011;59091;47.446;19.148;2022-08-19T10:49:56;3.78;;;3.30;;
71303;SDS011;59091;47.446;19.148;2022-08-19T10:52:41;4.25;;;3.60;;
71303;SDS011;59091;47.446;19.148;2022-08-19T10:55:08;4.95;;;3.75;;
71303;SDS011;59091;47.446;19.148;2022-08-19T10:57:52;7.07;;;3.40;;
71303;SDS011;59091;47.446;19.148;2022-08-19T11:00:19;10.85;;;3.83;;
71303;SDS011;59091;47.446;19.148;2022-08-19T11:02:45;12.27;;;4.43;;
71303;SDS011;59091;47.446;19.148;2022-08-19T11:05:11;9.10;;;3.70;;
71303;SDS011;59091;47.446;19.148;2022-08-19T11:07:40;3.63;;;3.08;;
71303;SDS011;59091;47.446;19.148;2022-08-19T11:10:06;4.93;;;3.90;;
71303;SDS011;59091;47.446;19.148;2022-08-19T11:12:36;6.93;;;3.38;;
71303;SDS011;59091;47.446;19.148;2022-08-19T11:15:04;3.70;;;3.05;;
71303;SDS011;59091;47.446;19.148;2022-08-19T11:17:32;4.40;;;3.30;;
71303;SDS011;59091;47.446;19.148;2022-08-19T11:19:58;6.80;;;3.17;;
71303;SDS011;59091;47.446;19.148;2022-08-19T11:22:28;6.85;;;3.53;;
71303;SDS011;59091;47.446;19.148;2022-08-19T11:24:54;3.83;;;3.33;;
71303;SDS011;59091;47.446;19.148;2022-08-19T11:27:20;6.50;;;3.30;;
71303;SDS011;59091;47.446;19.148;2022-08-19T11:29:46;4.22;;;3.17;;
71303;SDS011;59091;47.446;19.148;2022-08-19T11:32:11;6.50;;;3.35;;
71303;SDS011;59091;47.446;19.148;2022-08-19T11:34:37;5.55;;;3.17;;
71303;SDS011;59091;47.446;19.148;2022-08-19T11:37:03;4.28;;;3.58;;
71303;SDS011;59091;47.446;19.148;2022-08-19T11:39:31;3.50;;;3.00;;
71303;SDS011;59091;47.446;19.148;2022-08-19T11:41:58;5.00;;;3.20;;
71303;SDS011;59091;47.446;19.148;2022-08-19T11:44:50;15.43;;;9.32;;
71303;SDS011;59091;47.446;19.148;2022-08-19T11:47:16;16.50;;;11.77;;
71303;SDS011;59091;47.446;19.148;2022-08-19T11:49:41;10.38;;;7.07;;
71303;SDS011;59091;47.446;19.148;2022-08-19T11:52:07;6.38;;;3.78;;
71303;SDS011;59091;47.446;19.148;2022-08-19T11:54:32;6.50;;;5.20;;
71303;SDS011;59091;47.446;19.148;2022-08-19T11:56:58;8.05;;;4.75;;
71303;SDS011;59091;47.446;19.148;2022-08-19T11:59:24;6.75;;;3.97;;
71303;SDS011;59091;47.446;19.148;2022-08-19T12:01:51;7.28;;;4.88;;
71303;SDS011;59091;47.446;19.148;2022-08-19T12:04:17;14.13;;;7.63;;
71303;SDS011;59091;47.446;19.148;2022-08-19T12:06:42;6.85;;;5.30;;
71303;SDS011;59091;47.446;19.148;2022-08-19T12:09:08;19.75;;;10.60;;
71303;SDS011;59091;47.446;19.148;2022-08-19T12:11:35;13.10;;;8.38;;
71303;SDS011;59091;47.446;19.148;2022-08-19T12:14:02;52.45;;;32.60;;
71303;SDS011;59091;47.446;19.148;2022-08-19T12:16:28;37.78;;;22.73;;
71303;SDS011;59091;47.446;19.148;2022-08-19T12:18:55;20.00;;;13.23;;
71303;SDS011;59091;47.446;19.148;2022-08-19T12:21:23;19.42;;;9.00;;
71303;SDS011;59091;47.446;19.148;2022-08-19T12:23:53;11.30;;;7.38;;
71303;SDS011;59091;47.446;19.148;2022-08-19T12:26:20;15.73;;;9.00;;
71303;SDS011;59091;47.446;19.148;2022-08-19T12:28:46;14.35;;;10.52;;
71303;SDS011;59091;47.446;19.148;2022-08-19T12:31:13;14.63;;;11.13;;
71303;SDS011;59091;47.446;19.148;2022-08-19T12:33:39;14.27;;;11.20;;
71303;SDS011;59091;47.446;19.148;2022-08-19T12:36:07;14.55;;;9.63;;
71303;SDS011;59091;47.446;19.148;2022-08-19T12:38:37;16.05;;;9.73;;
71303;SDS011;59091;47.446;19.148;2022-08-19T12:41:03;11.63;;;9.43;;
71303;SDS011;59091;47.446;19.148;2022-08-19T12:43:35;13.48;;;9.50;;
71303;SDS011;59091;47.446;19.148;2022-08-19T12:46:01;9.60;;;8.27;;
71303;SDS011;59091;47.446;19.148;2022-08-19T12:48:29;14.70;;;7.57;;
71303;SDS011;59091;47.446;19.148;2022-08-19T12:50:54;9.30;;;6.40;;
71303;SDS011;59091;47.446;19.148;2022-08-19T12:53:20;10.93;;;6.95;;
71303;SDS011;59091;47.446;19.148;2022-08-19T12:55:45;11.43;;;6.80;;
71303;SDS011;59091;47.446;19.148;2022-08-19T12:58:11;9.77;;;6.90;;
71303;SDS011;59091;47.446;19.148;2022-08-19T13:00:37;8.65;;;6.85;;
71303;SDS011;59091;47.446;19.148;2022-08-19T13:03:03;9.50;;;6.72;;
71303;SDS011;59091;47.446;19.148;2022-08-19T13:05:29;12.43;;;7.13;;
71303;SDS011;59091;47.446;19.148;2022-08-19T13:07:58;10.50;;;7.20;;
71303;SDS011;59091;47.446;19.148;2022-08-19T13:10:29;13.05;;;8.18;;
71303;SDS011;59091;47.446;19.148;2022-08-19T13:13:00;13.93;;;8.50;;
71303;SDS011;59091;47.446;19.148;2022-08-19T13:15:32;10.88;;;7.97;;
71303;SDS011;59091;47.446;19.148;2022-08-19T13:18:00;12.07;;;7.72;;
71303;SDS011;59091;47.446;19.148;2022-08-19T13:20:26;13.27;;;8.02;;
71303;SDS011;59091;47.446;19.148;2022-08-19T13:22:52;10.27;;;7.28;;
71303;SDS011;59091;47.446;19.148;2022-08-19T13:25:18;9.25;;;6.88;;
71303;SDS011;59091;47.446;19.148;2022-08-19T13:27:44;13.82;;;7.45;;
71303;SDS011;59091;47.446;19.148;2022-08-19T13:30:12;16.67;;;8.40;;
71303;SDS011;59091;47.446;19.148;2022-08-19T13:32:57;12.85;;;8.07;;
71303;SDS011;59091;47.446;19.148;2022-08-19T13:35:45;10.00;;;6.55;;
71303;SDS011;59091;47.446;19.148;2022-08-19T13:38:13;10.73;;;6.20;;
71303;SDS011;59091;47.446;19.148;2022-08-19T13:40:41;11.18;;;6.25;;
71303;SDS011;59091;47.446;19.148;2022-08-19T13:43:07;9.07;;;6.25;;
71303;SDS011;59091;47.446;19.148;2022-08-19T13:45:34;11.13;;;6.32;;
71303;SDS011;59091;47.446;19.148;2022-08-19T13:48:00;9.30;;;6.10;;
71303;SDS011;59091;47.446;19.148;2022-08-19T13:50:31;12.35;;;6.03;;
71303;SDS011;59091;47.446;19.148;2022-08-19T13:52:57;8.88;;;5.20;;
71303;SDS011;59091;47.446;19.148;2022-08-19T13:55:24;10.45;;;5.90;;
71303;SDS011;59091;47.446;19.148;2022-08-19T13:57:53;9.18;;;5.03;;
71303;SDS011;59091;47.446;19.148;2022-08-19T14:00:20;11.50;;;4.20;;
71303;SDS011;59091;47.446;19.148;2022-08-19T14:02:47;5.63;;;3.40;;
71303;SDS011;59091;47.446;19.148;2022-08-19T14:05:16;4.07;;;3.22;;
71303;SDS011;59091;47.446;19.148;2022-08-19T14:07:43;17.60;;;3.35;;
71303;SDS011;59091;47.446;19.148;2022-08-19T14:10:10;20.67;;;3.97;;
71303;SDS011;59091;47.446;19.148;2022-08-19T14:12:37;16.25;;;3.97;;
71303;SDS011;59091;47.446;19.148;2022-08-19T14:15:03;7.75;;;3.17;;
71303;SDS011;59091;47.446;19.148;2022-08-19T14:17:30;10.35;;;2.80;;
71303;SDS011;59091;47.446;19.148;2022-08-19T14:19:56;7.20;;;2.92;;
71303;SDS011;59091;47.446;19.148;2022-08-19T14:22:31;8.02;;;2.70;;
71303;SDS011;59091;47.446;19.148;2022-08-19T14:24:57;8.27;;;3.08;;
71303;SDS011;59091;47.446;19.148;2022-08-19T14:27:23;8.18;;;3.28;;
71303;SDS011;59091;47.446;19.148;2022-08-19T14:29:50;8.82;;;2.92;;
71303;SDS011;59091;47.446;19.148;2022-08-19T14:32:16;7.43;;;3.20;;
71303;SDS011;59091;47.446;19.148;2022-08-19T14:34:41;12.50;;;3.13;;
71303;SDS011;59091;47.446;19.148;2022-08-19T14:37:07;6.28;;;3.33;;
71303;SDS011;59091;47.446;19.148;2022-08-19T14:39:34;6.22;;;2.58;;
71303;SDS011;59091;47.446;19.148;2022-08-19T14:41:59;5.43;;;2.58;;
71303;SDS011;59091;47.446;19.148;2022-08-19T14:44:26;9.40;;;3.10;;
71303;SDS011;59091;47.446;19.148;2022-08-19T14:46:51;6.88;;;2.78;;
71303;SDS011;59091;47.446;19.148;2022-08-19T14:49:18;7.53;;;2.40;;